createdAt,value
2023-04-09T00:00:24.132Z,5.10
2023-04-09T00:02:56.410Z,4.85
2023-04-09T00:05:28.614Z,5.03
2023-04-09T00:08:00.878Z,4.75
2023-04-09T00:10:32.926Z,4.90
2023-04-09T00:13:04.951Z,4.50
2023-04-09T00:15:39.661Z,4.68
2023-04-09T00:18:11.828Z,4.80
2023-04-09T00:20:44.542Z,4.43
2023-04-09T00:23:16.562Z,4.68
2023-04-09T00:25:48.646Z,5.05
2023-04-09T00:28:20.769Z,4.78
2023-04-09T00:30:55.560Z,4.93
2023-04-09T00:33:27.728Z,6.15
2023-04-09T00:36:00.107Z,4.60
2023-04-09T00:38:32.357Z,4.78
2023-04-09T00:41:04.654Z,5.15
2023-04-09T00:43:36.722Z,5.07
2023-04-09T00:46:11.615Z,5.05
2023-04-09T00:48:43.936Z,5.25
2023-04-09T00:51:16.767Z,4.80
2023-04-09T00:53:48.894Z,5.25
2023-04-09T00:56:23.630Z,5.70
2023-04-09T00:58:56.047Z,4.70
2023-04-09T01:01:31.006Z,5.15
2023-04-09T01:04:03.535Z,4.55
2023-04-09T01:06:43.034Z,4.65
2023-04-09T01:09:21.288Z,4.97
2023-04-09T01:12:02.736Z,4.90
2023-04-09T01:14:38.963Z,4.80
2023-04-09T01:17:18.976Z,4.15
2023-04-09T01:19:57.579Z,4.05
2023-04-09T01:22:41.262Z,5.10
2023-04-09T01:25:28.848Z,4.82
2023-04-09T01:28:17.059Z,5.15
2023-04-09T01:30:51.155Z,4.93
2023-04-09T01:33:24.578Z,4.18
2023-04-09T01:35:57.980Z,4.68
2023-04-09T01:38:30.094Z,5.00
2023-04-09T01:41:03.298Z,5.82
2023-04-09T01:43:38.639Z,5.15
2023-04-09T01:46:12.388Z,5.32
2023-04-09T01:48:44.821Z,5.03
2023-04-09T01:51:17.805Z,5.13
2023-04-09T01:53:50.052Z,5.28
2023-04-09T01:56:22.120Z,5.43
2023-04-09T01:58:56.740Z,5.00
2023-04-09T02:01:36.200Z,4.93
2023-04-09T02:04:13.754Z,5.18
2023-04-09T02:06:52.799Z,4.70
2023-04-09T02:09:27.695Z,5.13
2023-04-09T02:12:03.369Z,4.80
2023-04-09T02:14:38.864Z,6.05
2023-04-09T02:17:11.516Z,5.88
2023-04-09T02:19:45.041Z,6.47
2023-04-09T02:22:17.361Z,5.13
2023-04-09T02:24:49.437Z,5.55
2023-04-09T02:27:21.562Z,5.38
2023-04-09T02:29:56.225Z,5.00
2023-04-09T02:32:28.287Z,5.10
2023-04-09T02:35:00.573Z,5.13
2023-04-09T02:37:32.587Z,5.28
2023-04-09T02:40:05.350Z,6.07
2023-04-09T02:42:37.405Z,5.28
2023-04-09T02:45:12.300Z,6.28
2023-04-09T02:47:44.410Z,5.68
2023-04-09T02:50:17.119Z,5.88
2023-04-09T02:52:49.205Z,6.50
2023-04-09T02:55:21.621Z,5.63
2023-04-09T02:57:53.653Z,5.88
2023-04-09T03:00:28.289Z,6.65
2023-04-09T03:03:00.479Z,5.05
2023-04-09T03:05:32.606Z,5.18
2023-04-09T03:08:04.673Z,5.93
2023-04-09T03:10:36.760Z,6.78
2023-04-09T03:13:08.803Z,6.50
2023-04-09T03:15:43.452Z,6.03
2023-04-09T03:18:15.712Z,6.30
2023-04-09T03:20:47.984Z,5.57
2023-04-09T03:23:20.008Z,5.32
2023-04-09T03:26:01.291Z,5.60
2023-04-09T03:28:33.616Z,6.25
2023-04-09T03:31:08.292Z,6.22
2023-04-09T03:33:40.396Z,5.60
2023-04-09T03:36:12.492Z,5.63
2023-04-09T03:38:44.593Z,5.43
2023-04-09T03:41:16.938Z,6.93
2023-04-09T03:43:48.959Z,5.85
2023-04-09T03:46:23.710Z,6.70
2023-04-09T03:48:55.748Z,6.53
2023-04-09T03:51:27.812Z,5.60
2023-04-09T03:53:59.901Z,5.68
2023-04-09T03:56:31.928Z,6.03
2023-04-09T03:59:03.928Z,7.13
2023-04-09T04:01:38.619Z,6.53
2023-04-09T04:04:10.929Z,5.75
2023-04-09T04:06:43.039Z,6.65
2023-04-09T04:09:15.068Z,6.45
2023-04-09T04:11:47.744Z,5.68
2023-04-09T04:14:19.786Z,7.20
2023-04-09T04:16:54.365Z,5.65
2023-04-09T04:19:26.401Z,6.63
2023-04-09T04:21:58.426Z,6.03
2023-04-09T04:24:30.535Z,6.38
2023-04-09T04:27:02.547Z,6.40
2023-04-09T04:29:34.584Z,5.80
2023-04-09T04:32:09.301Z,7.10
2023-04-09T04:34:41.322Z,7.07
2023-04-09T04:37:14.058Z,6.55
2023-04-09T04:39:46.079Z,6.72
2023-04-09T04:42:18.452Z,7.65
2023-04-09T04:44:50.579Z,6.45
2023-04-09T04:47:25.537Z,7.40
2023-04-09T04:49:57.597Z,7.53
2023-04-09T04:52:29.711Z,7.38
2023-04-09T04:55:01.800Z,6.70
2023-04-09T04:57:33.809Z,6.53
2023-04-09T05:00:07.594Z,7.65
2023-04-09T05:02:42.380Z,5.88
2023-04-09T05:05:14.731Z,6.97
2023-04-09T05:07:46.790Z,6.55
2023-04-09T05:10:19.044Z,6.72
2023-04-09T05:12:51.110Z,6.95
2023-04-09T05:15:23.264Z,6.13
2023-04-09T05:17:58.368Z,6.85
2023-04-09T05:20:30.737Z,6.63
2023-04-09T05:23:02.819Z,7.30
2023-04-09T05:25:34.883Z,6.80
2023-04-09T05:28:06.958Z,6.57
2023-04-09T05:30:39.026Z,7.22
2023-04-09T05:33:13.631Z,6.88
2023-04-09T05:35:46.071Z,7.10
2023-04-09T05:38:18.119Z,7.97
2023-04-09T05:40:50.163Z,7.05
2023-04-09T05:43:22.433Z,6.63
2023-04-09T05:45:54.510Z,7.13
2023-04-09T05:48:29.151Z,7.63
2023-04-09T05:51:01.302Z,7.93
2023-04-09T05:53:34.244Z,7.63
2023-04-09T05:56:13.653Z,7.45
2023-04-09T05:58:45.649Z,7.18
2023-04-09T06:01:17.654Z,9.05
2023-04-09T06:03:54.675Z,7.55
2023-04-09T06:06:28.201Z,7.80
2023-04-09T06:09:00.258Z,7.90
2023-04-09T06:11:33.296Z,7.20
2023-04-09T06:14:05.333Z,7.38
2023-04-09T06:16:37.561Z,7.45
2023-04-09T06:19:12.624Z,7.32
2023-04-09T06:21:44.751Z,8.48
2023-04-09T06:24:16.791Z,7.57
2023-04-09T06:26:48.866Z,7.28
2023-04-09T06:29:22.041Z,8.82
2023-04-09T06:31:55.793Z,7.85
2023-04-09T06:34:30.524Z,8.55
2023-04-09T06:37:02.555Z,8.13
2023-04-09T06:39:34.622Z,7.78
2023-04-09T06:42:06.750Z,7.70
2023-04-09T06:44:38.783Z,8.02
2023-04-09T06:47:11.256Z,8.85
2023-04-09T06:49:46.048Z,9.00
2023-04-09T06:52:18.080Z,8.30
2023-04-09T06:54:50.115Z,8.27
2023-04-09T06:57:22.128Z,7.78
2023-04-09T06:59:54.164Z,7.93
2023-04-09T07:02:26.833Z,8.63
2023-04-09T07:05:02.029Z,9.07
2023-04-09T07:07:34.065Z,9.27
2023-04-09T07:10:07.956Z,9.30
2023-04-09T07:12:40.093Z,7.45
2023-04-09T07:15:12.219Z,9.30
2023-04-09T07:17:44.335Z,8.60
2023-04-09T07:20:19.153Z,8.43
2023-04-09T07:22:51.322Z,7.95
2023-04-09T07:25:23.542Z,8.40
2023-04-09T07:27:56.307Z,9.68
2023-04-09T07:30:28.709Z,7.85
2023-04-09T07:33:00.806Z,9.35
2023-04-09T07:35:35.603Z,8.30
2023-04-09T07:38:07.760Z,8.48
2023-04-09T07:40:39.789Z,8.55
2023-04-09T07:43:11.923Z,7.45
2023-04-09T07:45:44.724Z,8.48
2023-04-09T07:48:16.785Z,8.18
2023-04-09T07:50:51.712Z,8.35
2023-04-09T07:53:23.775Z,8.50
2023-04-09T07:55:56.557Z,9.25
2023-04-09T07:58:28.673Z,9.93
2023-04-09T08:01:00.908Z,8.50
2023-04-09T08:03:33.253Z,8.93
2023-04-09T08:06:08.608Z,9.20
2023-04-09T08:08:40.767Z,8.30
2023-04-09T08:11:12.950Z,7.65
2023-04-09T08:13:45.042Z,8.38
2023-04-09T08:16:17.388Z,7.57
2023-04-09T08:18:49.893Z,7.10
2023-04-09T08:21:24.748Z,6.30
2023-04-09T08:24:01.384Z,6.22
2023-04-09T08:26:33.474Z,7.25
2023-04-09T08:29:05.864Z,7.35
2023-04-09T08:31:38.024Z,6.95
2023-04-09T08:34:10.186Z,7.07
2023-04-09T08:36:45.752Z,7.07
2023-04-09T08:39:21.113Z,6.53
2023-04-09T08:41:53.694Z,6.90
2023-04-09T08:44:26.818Z,7.05
2023-04-09T08:47:00.624Z,7.95
2023-04-09T08:49:32.891Z,6.95
2023-04-09T08:52:07.580Z,7.00
2023-04-09T08:54:39.799Z,6.75
2023-04-09T08:57:12.118Z,6.82
2023-04-09T08:59:44.149Z,7.03
2023-04-09T09:02:16.289Z,7.00
2023-04-09T09:04:50.056Z,6.85
2023-04-09T09:07:24.649Z,6.20
2023-04-09T09:09:58.831Z,6.60
2023-04-09T09:12:36.606Z,6.95
2023-04-09T09:17:57.169Z,5.07
2023-04-09T09:20:29.346Z,5.15
2023-04-09T09:23:04.160Z,5.53
2023-04-09T09:25:38.847Z,6.03
2023-04-09T09:28:12.584Z,6.28
2023-04-09T09:30:49.161Z,5.25
2023-04-09T09:33:33.004Z,5.30
2023-04-09T09:36:05.443Z,5.45
2023-04-09T09:38:58.301Z,5.30
2023-04-09T09:41:34.704Z,4.97
2023-04-09T09:44:07.450Z,5.18
2023-04-09T09:46:41.502Z,5.32
2023-04-09T09:49:13.738Z,4.50
2023-04-09T09:51:45.923Z,5.10
2023-04-09T09:54:25.840Z,5.22
2023-04-09T09:57:02.217Z,5.03
2023-04-09T09:59:39.146Z,4.28
2023-04-09T10:02:18.952Z,5.35
2023-04-09T10:04:53.246Z,5.32
2023-04-09T10:07:25.836Z,4.15
2023-04-09T10:10:02.712Z,3.63
2023-04-09T10:12:34.903Z,3.67
2023-04-09T10:15:09.358Z,4.30
2023-04-09T10:17:41.518Z,3.88
2023-04-09T10:20:19.767Z,4.30
2023-04-09T10:22:53.553Z,5.45
2023-04-09T10:25:28.701Z,4.93
2023-04-09T10:28:02.313Z,4.85
2023-04-09T10:30:35.793Z,4.95
2023-04-09T10:33:12.925Z,4.38
2023-04-09T10:35:48.027Z,4.85
2023-04-09T10:38:35.618Z,4.38
2023-04-09T10:41:15.594Z,3.60
2023-04-09T10:43:48.607Z,3.60
2023-04-09T10:46:29.120Z,3.97
2023-04-09T10:49:16.959Z,4.05
2023-04-09T10:51:52.112Z,3.50
2023-04-09T10:54:39.954Z,4.00
2023-04-09T10:57:22.460Z,3.88
2023-04-09T10:59:55.554Z,3.50
2023-04-09T11:02:55.009Z,2.75
2023-04-09T11:05:32.916Z,3.60
2023-04-09T11:08:07.129Z,4.15
2023-04-09T11:10:41.113Z,2.80
2023-04-09T11:13:17.306Z,3.75
2023-04-09T11:15:49.386Z,2.83
2023-04-09T11:18:22.468Z,2.25
2023-04-09T11:20:58.511Z,2.88
2023-04-09T11:23:32.185Z,2.55
2023-04-09T11:26:05.430Z,2.15
2023-04-09T11:28:42.746Z,2.72
2023-04-09T11:31:15.094Z,3.05
2023-04-09T11:33:47.431Z,2.90
2023-04-09T11:36:21.515Z,3.20
2023-04-09T11:38:55.259Z,2.83
2023-04-09T11:41:34.567Z,2.70
2023-04-09T11:44:09.395Z,2.22
2023-04-09T11:46:43.167Z,2.40
2023-04-09T11:49:15.732Z,1.77
2023-04-09T11:51:48.073Z,1.90
2023-04-09T11:54:20.212Z,2.45
2023-04-09T11:56:56.176Z,2.88
2023-04-09T11:59:31.357Z,3.78
2023-04-09T12:02:07.689Z,3.65
2023-04-09T12:04:49.745Z,3.08
2023-04-09T12:07:22.274Z,3.15
2023-04-09T12:09:54.460Z,3.88
2023-04-09T12:12:26.581Z,3.60
2023-04-09T12:15:10.680Z,3.38
2023-04-09T12:17:42.935Z,2.97
2023-04-09T12:20:15.758Z,2.92
2023-04-09T12:22:47.797Z,2.65
2023-04-09T12:25:19.845Z,3.25
2023-04-09T12:27:51.895Z,3.42
2023-04-09T12:30:26.710Z,3.13
2023-04-09T12:32:59.197Z,2.95
2023-04-09T12:35:32.037Z,2.70
2023-04-09T12:38:05.238Z,3.00
2023-04-09T12:40:37.549Z,2.70
2023-04-09T12:43:09.954Z,3.03
2023-04-09T12:45:44.684Z,2.78
2023-04-09T12:48:16.808Z,3.17
2023-04-09T12:50:49.221Z,2.70
2023-04-09T12:53:21.272Z,1.90
2023-04-09T12:55:53.366Z,2.17
2023-04-09T12:58:25.491Z,2.97
2023-04-09T13:01:00.238Z,2.97
2023-04-09T13:03:32.468Z,2.00
2023-04-09T13:06:05.143Z,2.30
2023-04-09T13:08:37.267Z,2.42
2023-04-09T13:11:09.338Z,2.17
2023-04-09T13:13:44.163Z,2.75
2023-04-09T13:16:18.790Z,3.05
2023-04-09T13:18:52.253Z,2.53
2023-04-09T13:21:24.513Z,2.17
2023-04-09T13:23:56.871Z,2.35
2023-04-09T13:26:28.934Z,2.22
2023-04-09T13:29:01.910Z,2.72
2023-04-09T13:31:37.014Z,2.10
2023-04-09T13:34:09.084Z,2.35
2023-04-09T13:36:41.126Z,2.30
2023-04-09T13:39:13.188Z,2.63
2023-04-09T13:41:45.452Z,2.45
2023-04-09T13:44:17.567Z,2.30
2023-04-09T13:46:52.260Z,2.30
2023-04-09T13:49:24.441Z,2.67
2023-04-09T13:51:56.559Z,2.88
2023-04-09T13:54:28.748Z,2.13
2023-04-09T13:57:00.967Z,2.95
2023-04-09T13:59:33.074Z,2.80
2023-04-09T14:02:07.873Z,3.03
2023-04-09T14:04:40.190Z,2.45
2023-04-09T14:07:12.337Z,2.65
2023-04-09T14:09:44.510Z,2.35
2023-04-09T14:12:16.619Z,2.72
2023-04-09T14:14:49.136Z,2.35
2023-04-09T14:17:24.016Z,4.10
2023-04-09T14:19:58.011Z,2.25
2023-04-09T14:22:30.371Z,2.25
2023-04-09T14:25:02.489Z,2.58
2023-04-09T14:27:34.555Z,2.72
2023-04-09T14:30:09.232Z,2.65
2023-04-09T14:32:44.343Z,2.47
2023-04-09T14:35:16.484Z,2.75
2023-04-09T14:37:48.565Z,2.65
2023-04-09T14:40:20.655Z,2.33
2023-04-09T14:42:52.697Z,2.08
2023-04-09T14:45:24.804Z,2.45
2023-04-09T14:47:59.492Z,2.45
2023-04-09T14:50:32.533Z,2.63
2023-04-09T14:53:04.861Z,3.33
2023-04-09T14:55:36.934Z,5.65
2023-04-09T14:58:09.122Z,2.58
2023-04-09T15:00:41.442Z,2.72
2023-04-09T15:03:16.342Z,2.25
2023-04-09T15:05:48.539Z,2.42
2023-04-09T15:08:20.624Z,2.10
2023-04-09T15:10:52.685Z,2.58
2023-04-09T15:13:24.936Z,2.50
2023-04-09T15:15:57.236Z,2.33
2023-04-09T15:18:31.880Z,2.45
2023-04-09T15:21:04.346Z,2.35
2023-04-09T15:23:36.580Z,2.42
2023-04-09T15:26:08.692Z,2.53
2023-04-09T15:28:40.778Z,2.40
2023-04-09T15:31:13.093Z,2.08
2023-04-09T15:33:48.381Z,2.20
2023-04-09T15:36:20.473Z,2.22
2023-04-09T15:38:54.162Z,1.83
2023-04-09T15:41:27.053Z,2.78
2023-04-09T15:43:59.251Z,2.88
2023-04-09T15:46:31.721Z,2.63
2023-04-09T15:49:06.537Z,2.42
2023-04-09T15:51:38.648Z,2.65
2023-04-09T15:54:10.979Z,2.75
2023-04-09T15:56:43.067Z,3.42
2023-04-09T15:59:16.525Z,3.05
2023-04-09T16:01:49.293Z,3.40
2023-04-09T16:04:24.041Z,2.33
2023-04-09T16:06:56.499Z,2.50
2023-04-09T16:09:28.607Z,3.20
2023-04-09T16:12:01.615Z,2.63
2023-04-09T16:14:33.718Z,3.30
2023-04-09T16:17:05.932Z,2.40
2023-04-09T16:19:40.811Z,4.05
2023-04-09T16:22:13.481Z,2.90
2023-04-09T16:24:45.676Z,2.55
2023-04-09T16:27:17.734Z,2.50
2023-04-09T16:29:49.829Z,3.00
2023-04-09T16:32:21.903Z,2.63
2023-04-09T16:35:00.647Z,2.90
2023-04-09T16:37:32.737Z,2.38
2023-04-09T16:40:05.482Z,2.70
2023-04-09T16:42:37.609Z,3.20
2023-04-09T16:45:11.147Z,2.83
2023-04-09T16:47:43.299Z,3.03
2023-04-09T16:50:18.148Z,2.67
2023-04-09T16:52:50.405Z,4.53
2023-04-09T16:55:22.508Z,3.67
2023-04-09T16:57:56.467Z,3.38
2023-04-09T17:00:28.648Z,3.00
2023-04-09T17:03:00.877Z,2.80
2023-04-09T17:05:35.638Z,3.03
2023-04-09T17:08:07.744Z,3.47
2023-04-09T17:10:39.812Z,2.90
2023-04-09T17:13:12.306Z,3.00
2023-04-09T17:15:44.387Z,3.20
2023-04-09T17:18:16.619Z,4.00
2023-04-09T17:20:51.372Z,3.25
2023-04-09T17:23:23.697Z,3.75
2023-04-09T17:25:55.764Z,4.13
2023-04-09T17:28:27.835Z,4.18
2023-04-09T17:30:59.916Z,3.25
2023-04-09T17:33:32.341Z,3.58
2023-04-09T17:36:07.570Z,3.55
2023-04-09T17:38:39.672Z,3.63
2023-04-09T17:41:11.761Z,3.55
2023-04-09T17:43:43.853Z,3.85
2023-04-09T17:46:17.403Z,3.20
2023-04-09T17:48:49.490Z,3.78
2023-04-09T17:51:24.139Z,5.70
2023-04-09T17:53:56.427Z,5.60
2023-04-09T17:56:28.488Z,9.57
2023-04-09T17:59:00.536Z,7.93
2023-04-09T18:01:32.754Z,5.55
2023-04-09T18:04:05.317Z,5.85
2023-04-09T18:06:40.103Z,5.88
2023-04-09T18:09:12.915Z,5.63
2023-04-09T18:11:45.205Z,5.32
2023-04-09T18:14:17.340Z,4.70
2023-04-09T18:16:49.552Z,3.80
2023-04-09T18:19:21.862Z,3.85
2023-04-09T18:21:56.493Z,4.05
2023-04-09T18:24:29.345Z,4.65
2023-04-09T18:27:04.201Z,4.72
2023-04-09T18:29:36.662Z,4.55
2023-04-09T18:32:08.730Z,4.85
2023-04-09T18:34:41.082Z,4.43
2023-04-09T18:37:15.919Z,4.82
2023-04-09T18:39:48.083Z,4.68
2023-04-09T18:42:20.182Z,5.03
2023-04-09T18:44:52.319Z,6.00
2023-04-09T18:47:26.085Z,5.95
2023-04-09T18:49:58.706Z,6.60
2023-04-09T18:52:33.662Z,6.30
2023-04-09T18:55:06.769Z,6.50
2023-04-09T18:57:39.129Z,8.93
2023-04-09T19:00:12.337Z,7.35
2023-04-09T19:02:44.732Z,7.13
2023-04-09T19:05:17.742Z,5.82
2023-04-09T19:07:57.165Z,5.82
2023-04-09T19:10:29.693Z,5.93
2023-04-09T19:13:02.428Z,5.45
2023-04-09T19:15:34.509Z,6.20
2023-04-09T19:18:06.928Z,7.80
2023-04-09T19:20:39.086Z,8.77
2023-04-09T19:23:14.130Z,8.52
2023-04-09T19:25:50.531Z,8.70
2023-04-09T19:28:23.208Z,5.90
2023-04-09T19:30:55.402Z,5.63
2023-04-09T19:33:27.686Z,5.05
2023-04-09T19:35:59.827Z,4.90
2023-04-09T19:38:34.504Z,4.15
2023-04-09T19:41:06.764Z,4.47
2023-04-09T19:43:39.480Z,4.57
2023-04-09T19:46:11.626Z,5.78
2023-04-09T19:48:44.846Z,6.53
2023-04-09T19:51:17.821Z,4.95
2023-04-09T19:53:52.470Z,4.88
2023-04-09T19:56:25.465Z,5.60
2023-04-09T19:58:57.560Z,5.53
2023-04-09T20:01:29.781Z,5.88
2023-04-09T20:04:02.237Z,5.53
2023-04-09T20:06:35.644Z,5.10
2023-04-09T20:09:13.639Z,6.47
2023-04-09T20:11:46.709Z,7.35
2023-04-09T20:14:19.218Z,6.85
2023-04-09T20:16:51.299Z,5.68
2023-04-09T20:19:23.465Z,5.82
2023-04-09T20:21:55.526Z,4.45
2023-04-09T20:24:30.845Z,5.65
2023-04-09T20:27:03.935Z,5.32
2023-04-09T20:29:36.102Z,5.45
2023-04-09T20:32:08.216Z,6.05
2023-04-09T20:34:40.568Z,5.35
2023-04-09T20:37:12.726Z,5.50
2023-04-09T20:39:47.384Z,4.97
2023-04-09T20:42:19.485Z,5.07
2023-04-09T20:44:51.818Z,5.05
2023-04-09T20:47:24.208Z,4.65
2023-04-09T20:49:59.859Z,5.15
2023-04-09T20:52:32.428Z,4.93
2023-04-09T20:55:08.086Z,5.60
2023-04-09T20:57:40.184Z,4.97
2023-04-09T21:00:13.602Z,5.18
2023-04-09T21:02:45.919Z,5.20
2023-04-09T21:05:23.316Z,5.22
2023-04-09T21:07:56.186Z,5.15
2023-04-09T21:10:31.204Z,5.68
2023-04-09T21:13:03.264Z,5.30
2023-04-09T21:15:35.500Z,5.00
2023-04-09T21:18:07.542Z,6.40
2023-04-09T21:20:43.379Z,5.65
2023-04-09T21:23:16.129Z,4.95
2023-04-09T21:25:50.875Z,6.43
2023-04-09T21:28:22.934Z,5.95
2023-04-09T21:30:55.423Z,5.47
2023-04-09T21:33:29.898Z,6.40
2023-04-09T21:36:04.431Z,7.22
2023-04-09T21:38:36.553Z,6.93
2023-04-09T21:41:11.191Z,5.80
2023-04-09T21:43:45.459Z,6.05
2023-04-09T21:46:17.664Z,5.65
2023-04-09T21:48:49.792Z,5.72
2023-04-09T21:51:21.849Z,5.45
2023-04-09T21:54:02.200Z,5.40
2023-04-09T21:56:38.408Z,6.22
2023-04-09T21:59:13.752Z,5.88
2023-04-09T22:01:50.159Z,6.30
2023-04-09T22:04:24.736Z,5.80
2023-04-09T22:06:57.000Z,5.95
2023-04-09T22:09:29.117Z,6.40
2023-04-09T22:12:05.363Z,5.97
2023-04-09T22:14:41.702Z,5.80
2023-04-09T22:17:13.988Z,6.10
2023-04-09T22:19:46.650Z,6.05
2023-04-09T22:22:18.715Z,6.35
2023-04-09T22:24:50.809Z,5.93
2023-04-09T22:27:25.567Z,5.78
2023-04-09T22:29:57.633Z,6.60
2023-04-09T22:32:29.945Z,6.30
2023-04-09T22:35:02.118Z,7.07
2023-04-09T22:37:34.200Z,6.28
2023-04-09T22:40:14.357Z,5.38
2023-04-09T22:42:49.199Z,5.72
2023-04-09T22:45:21.427Z,6.10
2023-04-09T22:47:53.537Z,6.32
2023-04-09T22:50:27.962Z,6.30
2023-04-09T22:53:01.519Z,5.78
2023-04-09T22:55:33.572Z,6.18
2023-04-09T22:58:08.200Z,6.10
2023-04-09T23:00:40.542Z,6.28
2023-04-09T23:03:12.894Z,6.15
2023-04-09T23:05:46.422Z,5.85
2023-04-09T23:08:18.505Z,6.53
2023-04-09T23:10:50.659Z,6.45
2023-04-09T23:13:25.444Z,6.32
2023-04-09T23:15:57.525Z,6.18
2023-04-09T23:18:29.597Z,6.82
2023-04-09T23:21:04.404Z,6.95
2023-04-09T23:23:37.834Z,5.85
2023-04-09T23:26:09.930Z,6.43
2023-04-09T23:28:44.559Z,5.95
2023-04-09T23:31:16.624Z,6.20
2023-04-09T23:33:48.707Z,7.13
2023-04-09T23:36:20.903Z,6.30
2023-04-09T23:38:52.966Z,6.38
2023-04-09T23:41:25.029Z,6.40
2023-04-09T23:43:59.702Z,7.68
2023-04-09T23:46:32.384Z,6.90
2023-04-09T23:49:04.481Z,7.00
2023-04-09T23:51:36.590Z,7.63
2023-04-09T23:54:08.653Z,7.25
2023-04-09T23:56:40.988Z,6.07
2023-04-09T23:59:15.609Z,6.38
